Time;durP1;ratioP1;P1;durP2;ratioP2;P2;SDS_P1;SDS_P2;PMS_P1;PMS_P2;Temp;Humidity;BMP_temperature;BMP_pressure;BME280_temperature;BME280_humidity;BME280_pressure;Samples;Min_cycle;Max_cycle;Signal;HPM_P1;HPM_P2
2021/06/18 00:00:22;;;;;;;7.80;6.88;;;;;27.60;101264.00;;;;5110526;28;20197;-78
2021/06/18 00:02:50;;;;;;;7.90;6.75;;;;;27.60;101259.00;;;;5107077;28;20208;-77
2021/06/18 00:05:18;;;;;;;8.30;6.78;;;;;27.60;101252.00;;;;5107480;28;20201;-78
2021/06/18 00:07:45;;;;;;;9.25;8.13;;;;;27.60;101252.00;;;;5105899;28;20402;-77
2021/06/18 00:10:15;;;;;;;8.40;7.45;;;;;27.50;101257.00;;;;5109134;28;20574;-77
2021/06/18 00:12:42;;;;;;;8.48;7.57;;;;;27.50;101265.00;;;;5108612;28;20194;-78
2021/06/18 00:15:11;;;;;;;8.32;7.53;;;;;27.50;101274.00;;;;5109327;28;20229;-77
2021/06/18 00:17:40;;;;;;;9.02;7.93;;;;;27.40;101274.00;;;;5108287;28;20193;-77
2021/06/18 00:20:10;;;;;;;8.65;7.75;;;;;27.40;101265.00;;;;5109452;28;20216;-78
2021/06/18 00:22:38;;;;;;;8.32;7.35;;;;;27.40;101261.00;;;;5104740;28;20201;-77
2021/06/18 00:25:06;;;;;;;8.93;7.93;;;;;27.40;101274.00;;;;5110046;28;20656;-78
2021/06/18 00:27:33;;;;;;;10.65;8.13;;;;;27.40;101268.00;;;;5107217;28;20201;-77
2021/06/18 00:30:01;;;;;;;11.65;7.75;;;;;27.30;101264.00;;;;5102357;28;20193;-78
2021/06/18 00:32:28;;;;;;;11.35;8.95;;;;;27.40;101259.00;;;;5109212;28;20202;-79
2021/06/18 00:34:57;;;;;;;10.75;8.75;;;;;27.30;101260.00;;;;5107828;28;20241;-78
2021/06/18 00:37:24;;;;;;;8.88;8.02;;;;;27.40;101258.00;;;;5108330;28;20194;-77
2021/06/18 00:39:51;;;;;;;8.77;7.90;;;;;27.40;101242.00;;;;5095377;28;20190;-78
2021/06/18 00:42:19;;;;;;;8.82;7.95;;;;;27.40;101245.00;;;;5097729;28;20206;-77
2021/06/18 00:44:46;;;;;;;7.97;7.18;;;;;27.40;101251.00;;;;5107568;28;20200;-78
2021/06/18 00:47:19;;;;;;;8.25;7.43;;;;;27.40;101245.00;;;;5107296;28;21840;-77
2021/06/18 00:49:47;;;;;;;10.30;8.80;;;;;27.40;101229.00;;;;5106087;28;20695;-78
2021/06/18 00:52:17;;;;;;;11.43;8.80;;;;;27.40;101242.00;;;;5105085;28;20220;-77
2021/06/18 00:54:45;;;;;;;9.88;7.88;;;;;27.40;101233.00;;;;5108737;28;20196;-77
2021/06/18 00:57:13;;;;;;;9.55;8.23;;;;;27.40;101230.00;;;;5108073;28;20735;-77
2021/06/18 00:59:40;;;;;;;11.27;8.35;;;;;27.40;101231.00;;;;5108955;28;20220;-77
2021/06/18 01:02:08;;;;;;;9.65;8.60;;;;;27.30;101227.00;;;;5108754;28;21042;-77
2021/06/18 01:04:35;;;;;;;8.98;8.02;;;;;27.30;101222.00;;;;5106646;28;20570;-78
2021/06/18 01:07:07;;;;;;;10.38;8.18;;;;;27.30;101231.00;;;;5105674;28;20205;-77
2021/06/18 01:09:45;;;;;;;9.32;8.30;;;;;27.30;101230.00;;;;5105314;28;20197;-77
2021/06/18 01:12:16;;;;;;;12.35;8.70;;;;;27.30;101231.00;;;;5100311;28;20190;-77
2021/06/18 01:14:55;;;;;;;10.52;9.07;;;;;27.30;101244.00;;;;5088393;28;20280;-78
2021/06/18 01:17:25;;;;;;;10.57;9.48;;;;;27.30;101235.00;;;;5090599;28;20200;-77
2021/06/18 01:20:10;;;;;;;8.90;8.00;;;;;27.20;101230.00;;;;5105284;28;20213;-78
2021/06/18 01:22:41;;;;;;;10.00;9.00;;;;;27.30;101223.00;;;;5102430;28;20197;-77
2021/06/18 01:25:19;;;;;;;12.30;9.07;;;;;27.30;101215.00;;;;5093476;28;20198;-77
2021/06/18 01:27:52;;;;;;;11.93;8.52;;;;;27.30;101234.00;;;;5106979;28;20201;-78
2021/06/18 01:30:23;;;;;;;10.43;8.63;;;;;27.30;101225.00;;;;5107821;28;20197;-78
2021/06/18 01:32:58;;;;;;;9.15;8.18;;;;;27.30;101216.00;;;;5094741;28;20194;-78
2021/06/18 01:35:30;;;;;;;8.57;7.75;;;;;27.30;101210.00;;;;5105759;28;20222;-78
2021/06/18 01:38:01;;;;;;;10.80;8.52;;;;;27.30;101216.00;;;;5108756;28;20655;-78
2021/06/18 01:40:30;;;;;;;9.77;8.77;;;;;27.30;101216.00;;;;5097762;28;20684;-78
2021/06/18 01:43:00;;;;;;;9.85;8.40;;;;;27.30;101225.00;;;;5102259;28;20200;-79
2021/06/18 01:45:29;;;;;;;10.63;9.10;;;;;27.30;101236.00;;;;5094998;28;20197;-78
2021/06/18 01:47:58;;;;;;;9.27;8.40;;;;;27.30;101243.00;;;;5108411;28;20194;-78
2021/06/18 01:50:27;;;;;;;8.82;7.60;;;;;27.30;101246.00;;;;5097082;28;20206;-78
2021/06/18 01:53:00;;;;;;;9.45;8.48;;;;;27.30;101235.00;;;;5106832;28;20201;-77
2021/06/18 01:55:29;;;;;;;12.00;9.18;;;;;27.30;101245.00;;;;5106789;28;20239;-77
2021/06/18 01:58:00;;;;;;;11.40;8.63;;;;;27.40;101255.00;;;;5106825;28;20209;-77
2021/06/18 02:00:30;;;;;;;9.70;8.73;;;;;27.40;101247.00;;;;5107264;28;20211;-77
2021/06/18 02:03:00;;;;;;;10.15;9.10;;;;;27.40;101253.00;;;;5098744;28;20216;-78
2021/06/18 02:05:29;;;;;;;11.07;9.18;;;;;27.40;101243.00;;;;5098699;28;20197;-77
2021/06/18 02:07:59;;;;;;;8.52;7.70;;;;;27.40;101222.00;;;;5102771;28;20209;-77
2021/06/18 02:10:26;;;;;;;11.02;8.38;;;;;27.40;101222.00;;;;5101014;28;20191;-77
2021/06/18 02:12:56;;;;;;;12.55;8.70;;;;;27.40;101239.00;;;;5105535;28;20565;-78
2021/06/18 02:15:25;;;;;;;10.75;8.90;;;;;27.40;101237.00;;;;5096644;28;20208;-78
2021/06/18 02:17:53;;;;;;;11.10;9.40;;;;;27.40;101241.00;;;;5106131;28;20201;-77
2021/06/18 02:20:23;;;;;;;9.50;8.07;;;;;27.40;101242.00;;;;5103587;28;20197;-78
2021/06/18 02:22:53;;;;;;;9.75;8.38;;;;;27.40;101246.00;;;;5110081;28;20198;-78
2021/06/18 02:25:21;;;;;;;11.30;9.15;;;;;27.40;101247.00;;;;5111852;28;20197;-78
2021/06/18 02:27:49;;;;;;;10.30;8.77;;;;;27.40;101237.00;;;;5110333;28;20193;-77
2021/06/18 02:30:17;;;;;;;11.00;9.30;;;;;27.40;101228.00;;;;5104482;28;20190;-77
2021/06/18 02:32:47;;;;;;;11.20;9.52;;;;;27.40;101225.00;;;;5107974;28;20204;-78
2021/06/18 02:35:15;;;;;;;11.25;8.93;;;;;27.40;101222.00;;;;5102957;28;20218;-77
2021/06/18 02:37:42;;;;;;;10.82;9.70;;;;;27.40;101214.00;;;;5110253;28;20204;-78
2021/06/18 02:40:11;;;;;;;10.95;8.68;;;;;27.40;101228.00;;;;5113037;28;20209;-77
2021/06/18 02:42:38;;;;;;;13.82;9.50;;;;;27.40;101233.00;;;;5106937;28;20202;-78
2021/06/18 02:45:06;;;;;;;14.52;9.95;;;;;27.30;101230.00;;;;5094211;28;20186;-78
2021/06/18 02:47:39;;;;;;;10.20;9.02;;;;;27.30;101217.00;;;;5110434;28;20659;-78
2021/06/18 02:50:12;;;;;;;9.90;8.90;;;;;27.30;101218.00;;;;5100865;28;20224;-78
2021/06/18 02:52:50;;;;;;;11.32;9.85;;;;;27.20;101220.00;;;;5105992;28;20748;-78
2021/06/18 02:55:21;;;;;;;10.55;9.32;;;;;27.30;101215.00;;;;5110842;28;20197;-78
2021/06/18 02:57:54;;;;;;;10.80;9.65;;;;;27.30;101220.00;;;;5110517;28;20738;-78
2021/06/18 03:00:24;;;;;;;12.95;8.90;;;;;27.20;101224.00;;;;5110727;28;20193;-77
2021/06/18 03:02:55;;;;;;;10.27;9.10;;;;;27.20;101222.00;;;;5110448;28;20797;-78
2021/06/18 03:05:24;;;;;;;12.43;10.25;;;;;27.20;101222.00;;;;5110990;28;20194;-78
2021/06/18 03:07:58;;;;;;;10.40;9.40;;;;;27.20;101234.00;;;;5105040;28;20194;-79
2021/06/18 03:10:26;;;;;;;12.20;10.23;;;;;27.20;101238.00;;;;5110231;28;20205;-79
2021/06/18 03:12:59;;;;;;;10.82;9.48;;;;;27.20;101242.00;;;;5107031;28;20205;-78
2021/06/18 03:15:28;;;;;;;10.32;9.23;;;;;27.20;101261.00;;;;5106442;28;20205;-79
2021/06/18 03:17:57;;;;;;;8.63;7.72;;;;;27.20;101275.00;;;;5100308;28;20202;-79
2021/06/18 03:20:25;;;;;;;9.88;7.93;;;;;27.20;101312.00;;;;5110968;28;20194;-80
2021/06/18 03:22:59;;;;;;;9.38;7.90;;;;;27.20;101347.00;;;;5110639;28;20201;-79
2021/06/18 03:25:28;;;;;;;7.93;7.03;;;;;27.20;101361.00;;;;5102118;28;20190;-79
2021/06/18 03:27:57;;;;;;;9.35;7.65;;;;;27.20;101331.00;;;;5099058;27;20229;-78
2021/06/18 03:30:25;;;;;;;11.30;8.77;;;;;27.20;101295.00;;;;5106678;28;20307;-78
2021/06/18 03:32:53;;;;;;;8.60;7.43;;;;;27.10;101283.00;;;;5108855;28;20222;-77
2021/06/18 03:35:22;;;;;;;11.60;8.88;;;;;27.10;101301.00;;;;5106594;28;20222;-76
2021/06/18 03:37:51;;;;;;;11.68;8.10;;;;;27.00;101301.00;;;;5095203;28;20222;-76
2021/06/18 03:40:21;;;;;;;9.57;7.97;;;;;27.00;101305.00;;;;5110564;28;20198;-76
2021/06/18 03:42:49;;;;;;;10.18;8.40;;;;;27.00;101314.00;;;;5108788;28;20194;-77
2021/06/18 03:45:18;;;;;;;8.73;7.25;;;;;26.90;101341.00;;;;5102141;28;20194;-76
2021/06/18 03:47:46;;;;;;;10.18;9.00;;;;;26.90;101357.00;;;;5098593;28;20241;-76
2021/06/18 03:50:18;;;;;;;12.23;8.98;;;;;26.90;101323.00;;;;5110984;28;20213;-77
2021/06/18 03:52:45;;;;;;;8.88;8.02;;;;;26.90;101321.00;;;;5108430;28;21000;-76
2021/06/18 03:55:13;;;;;;;11.60;9.77;;;;;26.90;101314.00;;;;5110898;28;20200;-77
2021/06/18 03:57:45;;;;;;;9.05;8.02;;;;;26.80;101332.00;;;;5108412;28;20221;-78
2021/06/18 04:00:13;;;;;;;10.75;8.30;;;;;26.80;101366.00;;;;5110109;28;20193;-78
2021/06/18 04:02:41;;;;;;;10.82;8.52;;;;;26.80;101370.00;;;;5109051;28;20198;-78
2021/06/18 04:05:13;;;;;;;11.00;9.55;;;;;26.80;101372.00;;;;5110275;28;20682;-79
2021/06/18 04:07:46;;;;;;;11.20;9.93;;;;;26.70;101369.00;;;;5109040;28;20201;-77
2021/06/18 04:10:14;;;;;;;10.70;9.30;;;;;26.80;101380.00;;;;5109023;28;20205;-78
2021/06/18 04:12:43;;;;;;;14.38;10.15;;;;;26.70;101382.00;;;;5108613;28;20198;-77
2021/06/18 04:15:12;;;;;;;11.13;9.77;;;;;26.70;101385.00;;;;5106828;28;20206;-77
2021/06/18 04:17:41;;;;;;;12.82;10.18;;;;;26.60;101368.00;;;;5103832;28;20229;-77
2021/06/18 04:20:09;;;;;;;13.30;9.73;;;;;26.60;101357.00;;;;5104219;28;20222;-77
2021/06/18 04:22:36;;;;;;;13.05;10.52;;;;;26.60;101380.00;;;;5102956;28;20201;-76
2021/06/18 04:25:07;;;;;;;9.80;8.82;;;;;26.60;101410.00;;;;5109638;28;20679;-77
2021/06/18 04:27:34;;;;;;;10.73;9.57;;;;;26.60;101425.00;;;;5110485;28;20205;-77
2021/06/18 04:30:04;;;;;;;12.13;10.07;;;;;26.60;101412.00;;;;5098378;28;20204;-77
2021/06/18 04:32:31;;;;;;;10.88;9.80;;;;;26.60;101379.00;;;;5109238;28;20185;-77
2021/06/18 04:34:59;;;;;;;10.93;9.82;;;;;26.60;101361.00;;;;5100662;28;20221;-77
2021/06/18 04:37:26;;;;;;;13.95;10.70;;;;;26.60;101352.00;;;;5109153;28;20598;-77
2021/06/18 04:39:55;;;;;;;11.63;10.43;;;;;26.60;101352.00;;;;5108892;28;20610;-77
2021/06/18 04:42:22;;;;;;;12.70;11.40;;;;;26.60;101342.00;;;;5109856;28;20186;-77
2021/06/18 04:44:49;;;;;;;12.02;10.52;;;;;26.50;101346.00;;;;5109592;28;20418;-77
2021/06/18 04:47:18;;;;;;;12.27;11.02;;;;;26.50;101338.00;;;;5109843;28;20619;-77
2021/06/18 04:49:47;;;;;;;12.25;10.48;;;;;26.40;101356.00;;;;5109153;28;20221;-78
2021/06/18 04:52:14;;;;;;;11.57;10.38;;;;;26.40;101340.00;;;;5108561;28;20217;-77
2021/06/18 04:54:41;;;;;;;11.95;10.70;;;;;26.40;101345.00;;;;5097747;28;20254;-78
2021/06/18 04:57:09;;;;;;;12.27;10.05;;;;;26.40;101362.00;;;;5096981;28;20325;-78
2021/06/18 04:59:38;;;;;;;13.25;11.90;;;;;26.40;101372.00;;;;5108371;28;20285;-78
2021/06/18 05:02:06;;;;;;;11.93;10.73;;;;;26.40;101384.00;;;;5103707;28;20623;-78
2021/06/18 05:04:34;;;;;;;12.05;10.82;;;;;26.40;101391.00;;;;5108774;28;20655;-77
2021/06/18 05:07:01;;;;;;;12.48;11.00;;;;;26.40;101387.00;;;;5107358;28;20194;-78
2021/06/18 05:09:29;;;;;;;12.05;10.77;;;;;26.40;101387.00;;;;5108133;28;20200;-78
2021/06/18 05:11:56;;;;;;;14.75;11.65;;;;;26.40;101382.00;;;;5106463;28;20189;-77
2021/06/18 05:14:23;;;;;;;13.50;11.65;;;;;26.40;101367.00;;;;5103856;28;20201;-78
2021/06/18 05:16:50;;;;;;;12.93;10.30;;;;;26.40;101365.00;;;;5107482;28;20225;-77
2021/06/18 05:19:17;;;;;;;13.50;12.13;;;;;26.40;101359.00;;;;5108212;28;20201;-77
2021/06/18 05:21:46;;;;;;;13.50;12.13;;;;;26.30;101346.00;;;;5105673;28;20936;-77
2021/06/18 05:24:13;;;;;;;13.90;12.48;;;;;26.30;101335.00;;;;5110027;28;20194;-78
2021/06/18 05:26:41;;;;;;;16.00;12.73;;;;;26.30;101329.00;;;;5108319;28;20236;-78
2021/06/18 05:29:08;;;;;;;14.18;12.73;;;;;26.30;101334.00;;;;5097174;28;20190;-77
2021/06/18 05:31:36;;;;;;;13.70;12.27;;;;;26.30;101329.00;;;;5099767;28;20201;-77
2021/06/18 05:34:03;;;;;;;13.52;12.13;;;;;26.30;101321.00;;;;5109967;28;20659;-77
2021/06/18 05:36:30;;;;;;;13.75;12.15;;;;;26.30;101309.00;;;;5107989;28;20253;-78
2021/06/18 05:38:59;;;;;;;15.10;13.50;;;;;26.30;101303.00;;;;5108782;28;20213;-77
2021/06/18 05:41:26;;;;;;;13.48;12.05;;;;;26.30;101310.00;;;;5109589;28;20189;-77
2021/06/18 05:43:53;;;;;;;15.00;12.88;;;;;26.30;101308.00;;;;5108899;28;20667;-77
2021/06/18 05:46:20;;;;;;;14.63;13.18;;;;;26.30;101310.00;;;;5107401;28;20212;-77
2021/06/18 05:48:48;;;;;;;15.45;13.95;;;;;26.30;101298.00;;;;5109543;28;20221;-77
2021/06/18 05:51:15;;;;;;;16.38;14.65;;;;;26.30;101293.00;;;;5105889;28;20202;-77
2021/06/18 05:53:42;;;;;;;16.50;14.73;;;;;26.30;101288.00;;;;5104195;28;20205;-77
2021/06/18 05:56:10;;;;;;;15.88;14.23;;;;;26.30;101282.00;;;;5107417;28;20210;-78
2021/06/18 05:58:38;;;;;;;15.98;14.25;;;;;26.30;101277.00;;;;5107921;28;20225;-77
2021/06/18 06:01:05;;;;;;;15.35;13.65;;;;;26.30;101269.00;;;;5107913;28;20655;-77
2021/06/18 06:03:33;;;;;;;15.48;13.90;;;;;26.30;101266.00;;;;5106035;28;20194;-76
2021/06/18 06:06:00;;;;;;;16.42;14.05;;;;;26.30;101253.00;;;;5108664;28;20254;-76
2021/06/18 06:08:29;;;;;;;17.95;14.57;;;;;26.30;101253.00;;;;5106971;28;20584;-76
2021/06/18 06:10:57;;;;;;;17.58;15.73;;;;;26.30;101238.00;;;;5108127;28;21149;-76
2021/06/18 06:13:26;;;;;;;16.25;14.60;;;;;26.30;101239.00;;;;5108800;28;20209;-80
2021/06/18 06:15:54;;;;;;;14.68;13.15;;;;;26.30;101231.00;;;;5106192;28;20202;-79
2021/06/18 06:18:21;;;;;;;15.98;14.32;;;;;26.30;101229.00;;;;5107985;28;20232;-79
2021/06/18 06:20:49;;;;;;;15.48;13.98;;;;;26.30;101233.00;;;;5108889;28;20209;-80
2021/06/18 06:23:17;;;;;;;15.60;13.98;;;;;26.30;101233.00;;;;5108911;28;20201;-79
2021/06/18 06:25:45;;;;;;;15.75;14.23;;;;;26.30;101236.00;;;;5108304;28;20204;-80
2021/06/18 06:28:12;;;;;;;16.05;13.52;;;;;26.30;101239.00;;;;5106208;28;20190;-79
2021/06/18 06:30:41;;;;;;;13.38;12.02;;;;;26.30;101234.00;;;;5105882;28;20623;-80
2021/06/18 06:33:08;;;;;;;15.55;13.57;;;;;26.40;101233.00;;;;5108867;28;20208;-79
2021/06/18 06:35:35;;;;;;;15.18;13.52;;;;;26.40;101232.00;;;;5108068;28;20260;-79
2021/06/18 06:38:03;;;;;;;15.18;12.60;;;;;26.40;101237.00;;;;5108927;28;20240;-79
2021/06/18 06:40:30;;;;;;;13.80;12.38;;;;;26.40;101237.00;;;;5107877;28;20201;-79
2021/06/18 06:42:58;;;;;;;14.85;12.90;;;;;26.40;101228.00;;;;5108927;28;20576;-80
2021/06/18 06:45:25;;;;;;;14.45;12.88;;;;;26.40;101231.00;;;;5108616;28;20724;-80
2021/06/18 06:47:53;;;;;;;12.63;11.32;;;;;26.40;101229.00;;;;5108054;28;20210;-80
2021/06/18 06:50:21;;;;;;;14.88;12.80;;;;;26.40;101226.00;;;;5108972;28;20592;-79
2021/06/18 06:52:48;;;;;;;12.40;11.15;;;;;26.40;101238.00;;;;5108008;28;20596;-79
2021/06/18 06:55:16;;;;;;;14.30;12.68;;;;;26.50;101228.00;;;;5109022;28;20197;-80
2021/06/18 06:57:43;;;;;;;15.10;12.63;;;;;26.50;101233.00;;;;5107731;28;20257;-79
2021/06/18 07:00:11;;;;;;;13.60;12.20;;;;;26.50;101237.00;;;;5105215;28;20194;-81
2021/06/18 07:02:39;;;;;;;13.77;11.55;;;;;26.50;101240.00;;;;5107234;28;20594;-82
2021/06/18 07:05:08;;;;;;;13.77;12.35;;;;;26.50;101234.00;;;;5093528;28;20202;-82
2021/06/18 07:07:36;;;;;;;14.30;12.80;;;;;26.50;101233.00;;;;5109689;28;20536;-80
2021/06/18 07:10:04;;;;;;;12.13;10.93;;;;;26.50;101230.00;;;;5105649;27;20210;-79
2021/06/18 07:12:32;;;;;;;11.90;10.48;;;;;26.50;101233.00;;;;5110325;28;20255;-79
2021/06/18 07:14:59;;;;;;;12.38;11.02;;;;;26.50;101236.00;;;;5111898;28;20224;-78
2021/06/18 07:17:26;;;;;;;12.23;11.02;;;;;26.60;101235.00;;;;5111176;28;20224;-78
2021/06/18 07:19:54;;;;;;;11.43;10.35;;;;;26.60;101241.00;;;;5110267;28;20204;-79
2021/06/18 07:22:23;;;;;;;12.68;10.88;;;;;26.60;101237.00;;;;5111573;28;20194;-81
2021/06/18 07:24:51;;;;;;;10.25;9.25;;;;;26.60;101239.00;;;;5108657;28;20228;-80
2021/06/18 07:27:20;;;;;;;11.68;10.50;;;;;26.70;101247.00;;;;5110897;28;20202;-78
2021/06/18 07:29:47;;;;;;;10.38;9.27;;;;;26.70;101255.00;;;;5111332;28;20266;-79
2021/06/18 07:32:16;;;;;;;11.07;9.85;;;;;26.70;101248.00;;;;5110326;28;20194;-80
2021/06/18 07:34:43;;;;;;;10.13;8.77;;;;;26.70;101256.00;;;;5107640;28;20226;-79
2021/06/18 07:37:10;;;;;;;10.82;8.85;;;;;26.70;101260.00;;;;5110121;28;20608;-79
2021/06/18 07:39:39;;;;;;;8.93;7.97;;;;;26.70;101257.00;;;;5110972;28;20200;-79
2021/06/18 07:42:06;;;;;;;9.60;8.45;;;;;26.70;101252.00;;;;5110774;28;20581;-79
2021/06/18 07:44:38;;;;;;;9.38;8.48;;;;;26.70;101251.00;;;;5109831;28;20193;-79
2021/06/18 07:47:05;;;;;;;9.27;8.38;;;;;26.70;101238.00;;;;5111184;28;20205;-79
2021/06/18 07:49:36;;;;;;;9.35;8.35;;;;;26.70;101243.00;;;;5110482;28;20261;-78
2021/06/18 07:52:04;;;;;;;9.77;8.85;;;;;26.80;101243.00;;;;5110026;28;20201;-79
2021/06/18 07:54:31;;;;;;;9.48;8.50;;;;;26.80;101242.00;;;;5111129;28;20240;-79
2021/06/18 07:57:00;;;;;;;10.32;8.82;;;;;26.80;101245.00;;;;5109989;28;20598;-78
2021/06/18 07:59:27;;;;;;;9.93;8.02;;;;;26.80;101239.00;;;;5111383;28;20197;-78
2021/06/18 08:01:54;;;;;;;10.70;9.02;;;;;26.80;101242.00;;;;5110324;28;20323;-77
2021/06/18 08:04:21;;;;;;;10.00;9.05;;;;;26.80;101231.00;;;;5106315;28;20182;-77
2021/06/18 08:06:49;;;;;;;9.95;9.00;;;;;26.80;101229.00;;;;5110116;28;20220;-78
2021/06/18 08:09:16;;;;;;;9.77;8.77;;;;;26.80;101206.00;;;;5110244;28;20186;-77
2021/06/18 08:11:43;;;;;;;9.75;8.85;;;;;26.80;101198.00;;;;5109967;28;20202;-77
2021/06/18 08:14:12;;;;;;;10.23;8.85;;;;;26.80;101191.00;;;;5108599;28;20208;-77
2021/06/18 08:16:39;;;;;;;9.23;8.30;;;;;26.80;101185.00;;;;5103509;28;20701;-78
2021/06/18 08:19:06;;;;;;;10.00;9.00;;;;;26.80;101179.00;;;;5093776;27;20229;-77
2021/06/18 08:21:33;;;;;;;9.18;8.20;;;;;26.80;101175.00;;;;5107411;28;20209;-78
2021/06/18 08:24:00;;;;;;;10.30;9.30;;;;;26.80;101175.00;;;;5109655;28;20212;-78
2021/06/18 08:26:28;;;;;;;10.45;9.35;;;;;26.80;101179.00;;;;5109418;28;20200;-78
2021/06/18 08:28:55;;;;;;;9.65;8.75;;;;;26.90;101186.00;;;;5109781;28;20728;-78
2021/06/18 08:31:24;;;;;;;9.68;8.75;;;;;26.90;101195.00;;;;5109157;28;20197;-79
2021/06/18 08:33:51;;;;;;;9.98;8.98;;;;;26.90;101193.00;;;;5109893;28;20607;-79
2021/06/18 08:36:18;;;;;;;10.40;9.30;;;;;26.90;101199.00;;;;5110710;28;20269;-79
2021/06/18 08:38:45;;;;;;;10.57;8.77;;;;;27.00;101200.00;;;;5093354;28;20217;-79
2021/06/18 08:41:13;;;;;;;9.35;8.50;;;;;27.00;101194.00;;;;5089598;28;20198;-79
2021/06/18 08:43:41;;;;;;;9.75;8.85;;;;;27.10;101189.00;;;;5107380;28;20194;-79
2021/06/18 08:46:08;;;;;;;10.02;9.13;;;;;27.10;101180.00;;;;5109126;28;20198;-79
2021/06/18 08:48:37;;;;;;;10.20;8.10;;;;;27.20;101171.00;;;;5109796;28;20197;-78
2021/06/18 08:51:05;;;;;;;9.85;8.85;;;;;27.30;101165.00;;;;5110042;28;20213;-78
2021/06/18 08:53:35;;;;;;;9.48;8.15;;;;;27.30;101164.00;;;;5110588;28;20208;-79
2021/06/18 08:56:05;;;;;;;9.98;9.00;;;;;27.50;101162.00;;;;5109443;28;20201;-79
2021/06/18 08:58:32;;;;;;;10.38;8.73;;;;;27.60;101164.00;;;;5109848;28;20228;-79
2021/06/18 09:00:59;;;;;;;9.43;8.05;;;;;27.80;101166.00;;;;5104516;28;20198;-79
2021/06/18 09:03:41;;;;;;;9.27;8.48;;;;;27.90;101162.00;;;;5106749;27;20190;-79
2021/06/18 09:06:24;;;;;;;8.48;7.68;;;;;28.10;101163.00;;;;5089542;28;20281;-79
2021/06/18 09:09:17;;;;;;;7.60;6.90;;;;;28.30;101156.00;;;;5087469;28;20206;-79
2021/06/18 09:11:47;;;;;;;7.75;6.60;;;;;28.60;101150.00;;;;5089681;28;20221;-79
2021/06/18 09:14:26;;;;;;;7.90;6.82;;;;;28.70;101147.00;;;;5088843;28;20781;-79
2021/06/18 09:17:11;;;;;;;7.88;7.10;;;;;28.90;101160.00;;;;5089314;28;20198;-79
2021/06/18 09:19:42;;;;;;;7.22;6.63;;;;;29.20;101160.00;;;;5098037;28;20228;-78
2021/06/18 09:22:11;;;;;;;8.02;7.22;;;;;29.40;101158.00;;;;5109681;28;20198;-77
2021/06/18 09:24:40;;;;;;;6.32;5.72;;;;;29.60;101158.00;;;;5109014;28;20649;-80
2021/06/18 09:27:08;;;;;;;5.78;5.28;;;;;29.70;101151.00;;;;5109105;28;22004;-79
2021/06/18 09:29:36;;;;;;;7.35;6.30;;;;;29.90;101153.00;;;;5103329;28;20685;-79
2021/06/18 09:32:06;;;;;;;8.32;6.22;;;;;30.00;101151.00;;;;5091075;28;20551;-79
2021/06/18 09:34:46;;;;;;;6.72;5.90;;;;;30.10;101150.00;;;;5088665;28;20201;-78
2021/06/18 09:37:21;;;;;;;6.18;5.57;;;;;30.30;101154.00;;;;5103303;28;20251;-79
2021/06/18 09:40:14;;;;;;;5.47;4.90;;;;;30.30;101157.00;;;;5108837;28;20229;-79
2021/06/18 09:42:52;;;;;;;5.00;4.47;;;;;30.40;101162.00;;;;5108581;28;20198;-79
2021/06/18 09:45:21;;;;;;;6.22;5.63;;;;;30.60;101146.00;;;;5108370;28;20627;-79
2021/06/18 09:47:49;;;;;;;5.38;4.82;;;;;30.70;101160.00;;;;5108569;28;20197;-79
2021/06/18 09:50:28;;;;;;;5.07;4.63;;;;;30.70;101157.00;;;;5107791;28;20217;-78
2021/06/18 09:53:11;;;;;;;5.43;4.32;;;;;30.80;101165.00;;;;5106615;28;20198;-79
2021/06/18 09:55:39;;;;;;;5.30;4.75;;;;;31.00;101164.00;;;;5105525;28;20198;-79
2021/06/18 09:58:06;;;;;;;5.03;4.53;;;;;31.20;101157.00;;;;5107979;28;20226;-79
2021/06/18 10:00:34;;;;;;;5.25;4.35;;;;;31.30;101160.00;;;;5106974;28;20185;-79
2021/06/18 10:03:01;;;;;;;5.03;4.45;;;;;31.40;101159.00;;;;5108523;28;20216;-79
2021/06/18 10:05:34;;;;;;;5.15;4.65;;;;;31.50;101159.00;;;;5107013;28;20200;-79
2021/06/18 10:08:01;;;;;;;6.25;5.65;;;;;31.70;101167.00;;;;5108399;28;20727;-78
2021/06/18 10:10:30;;;;;;;7.07;6.35;;;;;31.80;101168.00;;;;5108327;28;20706;-79
2021/06/18 10:12:59;;;;;;;7.72;6.85;;;;;31.90;101163.00;;;;5109413;28;20201;-78
2021/06/18 10:15:28;;;;;;;6.70;5.90;;;;;32.00;101157.00;;;;5108473;28;20212;-78
2021/06/18 10:17:57;;;;;;;6.63;5.90;;;;;32.10;101147.00;;;;5108749;28;20201;-78
2021/06/18 10:20:26;;;;;;;7.63;6.60;;;;;32.20;101145.00;;;;5109249;28;20197;-79
2021/06/18 10:22:58;;;;;;;6.30;5.75;;;;;32.30;101135.00;;;;5108664;28;20330;-78
2021/06/18 10:25:30;;;;;;;9.15;7.32;;;;;32.50;101142.00;;;;5107298;28;20197;-77
2021/06/18 10:28:03;;;;;;;10.20;7.18;;;;;32.60;101136.00;;;;5107693;28;20197;-78
2021/06/18 10:30:34;;;;;;;7.35;6.65;;;;;32.70;101137.00;;;;5095642;28;20193;-77
2021/06/18 10:33:03;;;;;;;7.32;6.63;;;;;32.80;101136.00;;;;5098156;28;20189;-77
2021/06/18 10:35:52;;;;;;;8.93;8.10;;;;;32.80;101140.00;;;;5106568;28;20221;-79
2021/06/18 10:38:29;;;;;;;8.23;7.35;;;;;33.00;101145.00;;;;5105133;28;20782;-78
2021/06/18 10:40:58;;;;;;;9.10;7.45;;;;;33.10;101147.00;;;;5112890;28;20635;-78
2021/06/18 10:43:36;;;;;;;9.20;8.30;;;;;33.20;101142.00;;;;5112705;28;20201;-78
2021/06/18 10:46:15;;;;;;;11.15;10.02;;;;;33.20;101141.00;;;;5113984;28;20546;-79
2021/06/18 10:49:09;;;;;;;12.10;10.60;;;;;33.20;101128.00;;;;5112244;28;20215;-78
2021/06/18 10:51:45;;;;;;;12.45;10.88;;;;;33.30;101126.00;;;;5113233;28;20200;-78
2021/06/18 10:54:25;;;;;;;11.38;10.05;;;;;33.40;101128.00;;;;5113048;28;20193;-78
2021/06/18 10:56:58;;;;;;;11.45;10.05;;;;;33.50;101126.00;;;;5112590;28;20224;-77
2021/06/18 10:59:30;;;;;;;12.25;11.00;;;;;33.50;101126.00;;;;5112609;28;20229;-78
2021/06/18 11:02:00;;;;;;;11.40;10.20;;;;;33.60;101125.00;;;;5112065;28;20643;-77
2021/06/18 11:04:37;;;;;;;10.65;9.65;;;;;33.60;101119.00;;;;5112420;28;20189;-77
2021/06/18 11:07:20;;;;;;;9.32;8.43;;;;;33.60;101116.00;;;;5112846;28;20200;-79
2021/06/18 11:09:50;;;;;;;11.15;10.13;;;;;33.80;101119.00;;;;5112862;28;20232;-78
2021/06/18 11:12:37;;;;;;;11.27;10.18;;;;;33.70;101120.00;;;;5113172;28;20197;-78
2021/06/18 11:15:07;;;;;;;11.50;9.55;;;;;33.90;101123.00;;;;5113077;28;20204;-78
2021/06/18 11:17:43;;;;;;;11.23;9.85;;;;;33.90;101119.00;;;;5112055;28;20208;-78
2021/06/18 11:20:13;;;;;;;11.95;10.57;;;;;34.00;101118.00;;;;5113302;28;20224;-79
2021/06/18 11:22:46;;;;;;;11.25;10.07;;;;;34.00;101120.00;;;;5113261;28;20237;-79
2021/06/18 11:25:50;;;;;;;20.23;10.85;;;;;34.00;101121.00;;;;5114106;28;20292;-78
2021/06/18 11:28:34;;;;;;;10.75;9.82;;;;;34.00;101109.00;;;;5119622;28;20193;-78
2021/06/18 11:31:05;;;;;;;12.90;10.18;;;;;34.10;101113.00;;;;5096103;28;20236;-77
2021/06/18 11:33:56;;;;;;;11.77;10.68;;;;;34.10;101099.00;;;;5096813;28;20202;-78
2021/06/18 11:36:49;;;;;;;12.68;11.40;;;;;34.10;101101.00;;;;5109446;28;20311;-78
2021/06/18 11:39:19;;;;;;;11.70;10.52;;;;;34.20;101099.00;;;;5114376;28;20259;-78
2021/06/18 11:41:50;;;;;;;18.05;10.70;;;;;34.30;101112.00;;;;5113880;28;20223;-78
2021/06/18 11:44:23;;;;;;;11.27;10.23;;;;;34.30;101109.00;;;;5114113;28;20197;-79
2021/06/18 11:46:55;;;;;;;10.68;9.63;;;;;34.30;101108.00;;;;5112333;28;20196;-78
2021/06/18 11:49:25;;;;;;;10.32;9.20;;;;;34.40;101110.00;;;;5112744;28;20213;-78
2021/06/18 11:51:59;;;;;;;10.60;9.50;;;;;34.40;101087.00;;;;5113845;28;20212;-78
2021/06/18 11:54:31;;;;;;;9.57;8.00;;;;;34.40;101088.00;;;;5112508;28;20291;-78
2021/06/18 11:57:03;;;;;;;9.60;8.75;;;;;34.40;101084.00;;;;5112343;28;20569;-79
2021/06/18 11:59:33;;;;;;;10.10;9.15;;;;;34.50;101081.00;;;;5112380;28;20217;-78
2021/06/18 12:02:17;;;;;;;9.40;8.45;;;;;34.40;101082.00;;;;5111673;28;20650;-78
2021/06/18 12:04:46;;;;;;;9.82;8.82;;;;;34.60;101079.00;;;;5111797;28;20249;-77
2021/06/18 12:07:13;;;;;;;7.55;6.78;;;;;34.60;101073.00;;;;5110357;28;20204;-78
2021/06/18 12:09:42;;;;;;;8.02;7.32;;;;;34.60;101076.00;;;;5110161;28;20262;-78
2021/06/18 12:12:11;;;;;;;8.25;7.45;;;;;34.70;101078.00;;;;5109541;28;20666;-78